This is the latest recevied weather packets stored in our database for station/object EDXW. If no packets are shown the sender has not sent any weather packets the latest 10 day(s).
| Time | Temp. | Humidity | Pressure | Rain* | Wind** | Luminosity | Snow |
|---|---|---|---|---|---|---|---|
| 1787533801 | 15° C | 75% | 1022 hPa | 0 mm | - | - | - |
| 1787523002 | 15° C | 75% | 1021 hPa | 0 mm | - | - | - |
| 1787519401 | 15° C | 80% | 1021 hPa | 0 mm | - | - | - |
| 1787515802 | 15° C | 75% | 1021 hPa | 0 mm | - | - | - |
| 1787505002 | 15.56° C | 75% | 1020 hPa | 0 mm | - | - | - |
| 1787501402 | 15.56° C | 75% | 1021 hPa | 0 mm | - | - | - |
| 1787497801 | 15.56° C | 75% | 1020 hPa | 0 mm | - | - | - |
| 1787494204 | 15.56° C | 75% | 1020 hPa | 0 mm | - | - | - |
| 1787483402 | 16.67° C | 75% | 1019 hPa | 0 mm | - | - | - |
| 1787461801 | 13.89° C | 80% | 1017 hPa | 0 mm | - | - | - |
| 1787458202 | 13.89° C | 80% | 1017 hPa | 0 mm | - | - | - |
| 1787451001 | 13.89° C | 85% | 1017 hPa | 0 mm | - | - | - |
| 1787447401 | 15° C | 75% | 1016 hPa | 0 mm | - | - | - |
| 1787440201 | 13.89° C | 80% | 1016 hPa | 0 mm | - | - | - |
| 1787436601 | 13.89° C | 85% | 1016 hPa | 0 mm | - | - | - |
| 1787433002 | 13.89° C | 90% | 1016 hPa | 0 mm | - | - | - |
| 1787429402 | 13.89° C | 90% | 1016 hPa | 0 mm | - | - | - |
| 1787425802 | 15° C | 75% | 1016 hPa | 0 mm | - | - | - |
| 1787422202 | 15° C | 85% | 1016 hPa | 0 mm | - | - | - |
| 1787418602 | 15.56° C | 75% | 1015 hPa | 0 mm | - | - | - |
| 1787415002 | 15.56° C | 75% | 1015 hPa | 0 mm | - | - | - |
| 1787411403 | 16.67° C | 70% | 1014 hPa | 0 mm | - | - | - |
| 1787407802 | 16.67° C | 70% | 1014 hPa | 0 mm | - | - | - |
| 1787404202 | 15.56° C | 80% | 1013 hPa | 0 mm | - | - | - |
| 1787400601 | 15.56° C | 85% | 1013 hPa | 0 mm | - | - | - |
* Rain latest 24 hours (hover to see other rain measurements)
** Current wind speed in m/s (hover to see current wind gust speed)